Terminal Aerodrome Forecast
Issued by NWS Sioux Falls, SD

Home | Current Version | Previous Version | Text Only | Print | Product List | Glossary On
Versions: 1 2 3 4 5 6 7 8 9 10 11 12 13 14 15 16 17 18 19 20
000
FTUS43 KFSD 152038 AAC
TAFFSD
TAF AMD
KFSD 152038Z 1521/1618 34020G30KT 1/2SM SN FG OVC010
     FM160000 34022G30KT 4SM -SN OVC015
     FM160400 34017G24KT P6SM OVC015
     FM161300 34012G18KT P6SM OVC015=

USA.gov is the U.S. government's official web portal to all federal, state and local government web resources and services.